Time;durP1;ratioP1;P1;durP2;ratioP2;P2;SDS_P1;SDS_P2;PMS_P1;PMS_P2;Temp;Humidity;BMP_temperature;BMP_pressure;BME280_temperature;BME280_humidity;BME280_pressure;Samples;Min_cycle;Max_cycle;Signal;HPM_P1;HPM_P2
2022/06/28 00:02:05;;;;;;;28.42;15.68;;;13.90;99.90;;;;;;5007760;28;20042;-66
2022/06/28 00:04:31;;;;;;;22.30;15.27;;;13.90;99.90;;;;;;5008362;28;20377;-66
2022/06/28 00:06:56;;;;;;;25.30;15.73;;;13.80;99.90;;;;;;5006322;28;20045;-66
2022/06/28 00:09:23;;;;;;;23.65;14.80;;;13.80;99.90;;;;;;5020812;28;20049;-66
2022/06/28 00:11:48;;;;;;;24.85;15.23;;;13.80;99.90;;;;;;5010848;28;20135;-67
2022/06/28 00:16:59;;;;;;;24.02;15.50;;;13.70;99.90;;;;;;5006794;28;20053;-66
2022/06/28 00:19:25;;;;;;;23.05;15.02;;;13.70;99.90;;;;;;5012937;28;20107;-66
2022/06/28 00:21:51;;;;;;;22.38;15.00;;;13.70;99.90;;;;;;5005728;28;20046;-66
2022/06/28 00:24:16;;;;;;;18.33;14.02;;;13.80;99.90;;;;;;5010596;28;20041;-66
2022/06/28 00:26:42;;;;;;;22.40;15.02;;;13.70;99.90;;;;;;5026463;28;20038;-66
2022/06/28 00:29:08;;;;;;;20.33;14.20;;;13.70;99.90;;;;;;5009538;28;20046;-67
2022/06/28 00:31:34;;;;;;;20.67;15.10;;;13.70;99.90;;;;;;5010834;28;20062;-66
2022/06/28 00:34:02;;;;;;;19.27;13.52;;;13.70;99.90;;;;;;5007980;28;20117;-66
2022/06/28 00:36:27;;;;;;;17.83;13.13;;;13.60;99.90;;;;;;5009080;28;20121;-67
2022/06/28 00:38:53;;;;;;;22.38;15.48;;;13.70;99.90;;;;;;5008929;28;20463;-66
2022/06/28 00:41:19;;;;;;;19.45;14.02;;;13.60;99.90;;;;;;5013198;28;20038;-67
2022/06/28 00:43:46;;;;;;;20.52;15.27;;;13.60;99.90;;;;;;5010826;28;20373;-66
2022/06/28 00:46:12;;;;;;;20.27;14.35;;;13.60;99.90;;;;;;5017264;28;20045;-66
2022/06/28 00:48:38;;;;;;;18.17;13.40;;;13.60;99.90;;;;;;5015287;28;20037;-66
2022/06/28 00:51:04;;;;;;;18.42;14.45;;;13.50;99.90;;;;;;5013126;28;20573;-66
2022/06/28 00:53:30;;;;;;;18.02;13.10;;;13.50;99.90;;;;;;5006664;28;20077;-67
2022/06/28 00:55:56;;;;;;;20.25;13.70;;;13.50;99.90;;;;;;5012169;28;20077;-66
2022/06/28 00:58:21;;;;;;;21.27;14.40;;;13.50;99.90;;;;;;5010564;28;20044;-67
2022/06/28 01:00:48;;;;;;;17.13;13.45;;;13.50;99.90;;;;;;5009480;28;20125;-67
2022/06/28 01:03:17;;;;;;;23.90;14.43;;;13.50;99.90;;;;;;5022796;28;20070;-67
2022/06/28 01:05:43;;;;;;;17.45;13.35;;;13.50;99.90;;;;;;5012015;28;20455;-67
2022/06/28 01:08:10;;;;;;;21.50;14.52;;;13.50;99.90;;;;;;5011178;28;20038;-67
2022/06/28 01:10:37;;;;;;;23.40;14.07;;;13.40;99.90;;;;;;5011346;28;20475;-67
2022/06/28 01:13:03;;;;;;;20.25;14.95;;;13.40;99.90;;;;;;5010623;28;20041;-66
2022/06/28 01:15:30;;;;;;;20.40;13.60;;;13.40;99.90;;;;;;5012095;28;20046;-67
2022/06/28 01:17:57;;;;;;;19.70;13.43;;;13.40;99.90;;;;;;5013777;28;20038;-66
2022/06/28 01:20:23;;;;;;;20.15;14.55;;;13.40;99.90;;;;;;5012944;28;20053;-66
2022/06/28 01:22:49;;;;;;;19.10;12.48;;;13.40;99.90;;;;;;5019138;28;20495;-67
2022/06/28 01:25:14;;;;;;;18.60;13.50;;;13.40;99.90;;;;;;5012386;28;20114;-66
2022/06/28 01:27:40;;;;;;;20.27;13.57;;;13.30;99.90;;;;;;5012157;28;20133;-66
2022/06/28 01:30:10;;;;;;;20.45;13.07;;;13.30;99.90;;;;;;5011278;28;20061;-67
2022/06/28 01:32:36;;;;;;;19.65;13.70;;;13.30;99.90;;;;;;4993073;28;20077;-66
2022/06/28 01:35:03;;;;;;;20.55;13.15;;;13.30;99.90;;;;;;5005903;28;20481;-66
2022/06/28 01:37:28;;;;;;;19.60;14.13;;;13.30;99.90;;;;;;5008110;28;20045;-66
2022/06/28 01:39:54;;;;;;;26.48;14.65;;;13.20;99.90;;;;;;5002860;28;20034;-66
2022/06/28 01:42:20;;;;;;;18.38;13.73;;;13.20;99.90;;;;;;4990585;28;20546;-66
2022/06/28 01:44:49;;;;;;;17.75;13.20;;;13.20;99.90;;;;;;5009545;28;20038;-67
2022/06/28 01:47:17;;;;;;;20.63;14.00;;;13.20;99.90;;;;;;5010359;28;20042;-66
2022/06/28 01:49:43;;;;;;;18.23;12.48;;;13.20;99.90;;;;;;5009997;28;20111;-66
2022/06/28 01:52:09;;;;;;;20.27;14.05;;;13.10;99.90;;;;;;5007127;28;20097;-66
2022/06/28 01:54:34;;;;;;;19.90;14.45;;;13.10;99.90;;;;;;5006829;28;20120;-67
2022/06/28 01:57:02;;;;;;;22.60;13.63;;;13.20;99.90;;;;;;5007175;28;20543;-66
2022/06/28 01:59:27;;;;;;;18.77;13.02;;;13.10;99.90;;;;;;5008129;28;20046;-66
2022/06/28 02:01:53;;;;;;;17.83;12.35;;;13.10;99.90;;;;;;5005209;28;20037;-67
2022/06/28 02:04:21;;;;;;;19.00;12.23;;;13.00;99.90;;;;;;5001796;28;20034;-66
2022/06/28 02:06:46;;;;;;;16.23;11.70;;;13.00;99.90;;;;;;5007421;28;20141;-66
2022/06/28 02:09:12;;;;;;;21.77;11.00;;;13.00;99.90;;;;;;5006559;28;20050;-66
2022/06/28 02:11:38;;;;;;;18.50;11.82;;;13.00;99.90;;;;;;5010198;28;20042;-66
2022/06/28 02:14:04;;;;;;;19.08;10.98;;;13.00;99.90;;;;;;5008535;28;20065;-66
2022/06/28 02:16:30;;;;;;;21.73;11.88;;;13.00;99.90;;;;;;5009560;28;20037;-66
2022/06/28 02:18:56;;;;;;;19.48;12.52;;;12.90;99.90;;;;;;5011157;28;20050;-66
2022/06/28 02:21:21;;;;;;;21.48;12.85;;;12.90;99.90;;;;;;5008641;28;20489;-66
2022/06/28 02:23:47;;;;;;;18.25;11.80;;;12.90;99.90;;;;;;5013349;28;20362;-66
2022/06/28 02:26:13;;;;;;;16.35;11.68;;;12.90;99.90;;;;;;5019782;28;20038;-66
2022/06/28 02:28:40;;;;;;;20.00;11.52;;;12.90;99.90;;;;;;5023283;28;20074;-67
2022/06/28 02:31:10;;;;;;;16.60;11.30;;;12.90;99.90;;;;;;5016960;28;20045;-66
2022/06/28 02:33:36;;;;;;;23.35;11.70;;;12.90;99.90;;;;;;5010793;28;20033;-65
2022/06/28 02:41:30;;;;;;;17.15;11.10;;;12.90;99.90;;;;;;5004777;28;20120;-66
2022/06/28 02:43:56;;;;;;;16.98;11.63;;;12.90;99.90;;;;;;4999697;28;20113;-66
2022/06/28 02:46:22;;;;;;;22.00;10.88;;;12.90;99.90;;;;;;5007580;28;20054;-66
2022/06/28 02:48:48;;;;;;;18.65;11.60;;;12.90;99.90;;;;;;5013209;28;20038;-66
2022/06/28 02:51:13;;;;;;;17.48;10.70;;;12.90;99.90;;;;;;5009762;28;20034;-66
2022/06/28 02:53:39;;;;;;;18.85;10.68;;;12.90;99.90;;;;;;5005106;28;20168;-66
2022/06/28 02:56:05;;;;;;;13.38;10.50;;;12.80;99.90;;;;;;5006383;28;20041;-66
2022/06/28 02:58:31;;;;;;;15.88;10.38;;;12.80;99.90;;;;;;5007595;28;20060;-66
2022/06/28 03:00:57;;;;;;;19.88;10.82;;;12.80;99.90;;;;;;5006500;28;20153;-65
2022/06/28 03:03:23;;;;;;;14.77;9.98;;;12.80;99.90;;;;;;5008097;28;20088;-66
2022/06/28 03:05:48;;;;;;;19.45;10.93;;;12.80;99.90;;;;;;5008020;28;20046;-66
2022/06/28 03:08:14;;;;;;;15.23;9.93;;;12.90;99.90;;;;;;5006248;28;20503;-66
2022/06/28 03:10:40;;;;;;;15.40;10.88;;;12.90;99.90;;;;;;5009225;28;20064;-66
2022/06/28 03:13:06;;;;;;;20.27;11.10;;;12.80;99.90;;;;;;5007968;28;20551;-67
2022/06/28 03:15:32;;;;;;;18.67;11.57;;;12.90;99.90;;;;;;5004940;28;20049;-66
2022/06/28 03:17:58;;;;;;;17.02;10.05;;;12.90;99.90;;;;;;5007918;28;20064;-66
2022/06/28 03:20:24;;;;;;;26.80;12.27;;;12.80;99.90;;;;;;5008880;28;20072;-65
2022/06/28 03:22:49;;;;;;;17.05;11.60;;;12.90;99.90;;;;;;5006382;28;20521;-66
2022/06/28 03:25:15;;;;;;;21.50;12.80;;;12.80;99.90;;;;;;5005897;28;20061;-67
2022/06/28 03:27:41;;;;;;;17.75;11.48;;;12.80;99.90;;;;;;5003615;28;20516;-67
2022/06/28 03:30:07;;;;;;;22.77;11.75;;;12.90;99.90;;;;;;5010739;28;20037;-67
2022/06/28 03:32:33;;;;;;;21.02;12.25;;;12.80;99.90;;;;;;5004044;28;20042;-66
2022/06/28 03:34:58;;;;;;;16.10;12.23;;;12.80;99.90;;;;;;5008247;28;20069;-67
2022/06/28 03:37:24;;;;;;;29.90;14.40;;;12.90;99.90;;;;;;5007509;28;20384;-67
2022/06/28 03:39:50;;;;;;;22.00;12.45;;;12.80;99.90;;;;;;5008261;28;20508;-66
2022/06/28 03:42:16;;;;;;;18.55;11.95;;;12.90;99.90;;;;;;5008029;28;20112;-67
2022/06/28 03:44:42;;;;;;;19.38;13.13;;;12.90;99.90;;;;;;5010991;28;20049;-68
2022/06/28 03:47:07;;;;;;;23.92;12.68;;;12.80;99.90;;;;;;5007982;28;20046;-67
2022/06/28 03:49:33;;;;;;;21.38;12.85;;;12.80;99.90;;;;;;5006550;28;20038;-66
2022/06/28 03:51:59;;;;;;;20.92;12.77;;;12.90;99.90;;;;;;5007098;28;20061;-67
2022/06/28 03:54:26;;;;;;;22.27;13.25;;;12.90;99.90;;;;;;5012473;28;20046;-66
2022/06/28 03:56:52;;;;;;;17.30;12.35;;;12.90;99.90;;;;;;5004465;28;20042;-67
2022/06/28 03:59:17;;;;;;;22.55;12.15;;;12.90;99.90;;;;;;5005204;28;20041;-67
2022/06/28 04:01:43;;;;;;;21.30;11.68;;;12.90;99.90;;;;;;5007268;28;20033;-66
2022/06/28 04:04:09;;;;;;;18.88;11.40;;;13.00;99.90;;;;;;5009090;28;20411;-66
2022/06/28 04:06:34;;;;;;;19.33;11.88;;;12.90;99.90;;;;;;5005815;28;20053;-67
2022/06/28 04:09:01;;;;;;;16.10;10.95;;;13.00;99.90;;;;;;5006778;28;20484;-66
2022/06/28 04:11:27;;;;;;;16.10;11.77;;;13.00;99.90;;;;;;5006567;28;20054;-67
2022/06/28 04:13:53;;;;;;;21.05;11.65;;;12.90;99.90;;;;;;5020667;28;20504;-67
2022/06/28 04:16:21;;;;;;;20.23;11.43;;;12.90;99.90;;;;;;5009272;28;20053;-67
2022/06/28 04:18:48;;;;;;;20.80;11.80;;;13.00;99.90;;;;;;5006544;28;20141;-67
2022/06/28 04:21:16;;;;;;;24.60;11.63;;;12.90;99.90;;;;;;5009069;28;20060;-66
2022/06/28 04:23:42;;;;;;;18.40;11.43;;;12.90;99.90;;;;;;5008528;28;20465;-66
2022/06/28 04:26:08;;;;;;;15.27;10.98;;;12.90;99.90;;;;;;5006669;28;20129;-66
2022/06/28 04:28:35;;;;;;;17.40;11.10;;;12.90;99.90;;;;;;5008573;28;20133;-67
2022/06/28 04:31:02;;;;;;;15.02;10.95;;;12.90;99.90;;;;;;5008141;28;20041;-66
2022/06/28 04:33:28;;;;;;;17.70;11.80;;;12.90;99.90;;;;;;5002036;28;20456;-66
2022/06/28 04:35:54;;;;;;;19.08;11.35;;;12.90;99.90;;;;;;5006812;28;20043;-66
2022/06/28 04:38:20;;;;;;;18.70;9.52;;;12.90;99.90;;;;;;5009382;28;20370;-67
2022/06/28 04:40:45;;;;;;;20.38;11.18;;;12.90;99.90;;;;;;5009668;28;20551;-66
2022/06/28 04:43:11;;;;;;;18.70;11.43;;;12.90;99.90;;;;;;5023635;28;20061;-65
2022/06/28 04:45:37;;;;;;;17.77;9.98;;;13.00;99.90;;;;;;5015070;28;20046;-67
2022/06/28 04:48:03;;;;;;;25.33;10.50;;;13.00;99.90;;;;;;5012730;28;20034;-66
2022/06/28 04:50:28;;;;;;;15.48;9.27;;;13.10;99.90;;;;;;5015411;28;20115;-67
2022/06/28 04:52:54;;;;;;;17.67;9.10;;;13.10;99.90;;;;;;5010609;28;20046;-67
2022/06/28 04:55:20;;;;;;;16.65;9.70;;;13.10;99.90;;;;;;5013066;28;20081;-67
2022/06/28 04:57:46;;;;;;;16.23;8.68;;;13.20;99.90;;;;;;5014315;28;20421;-66
2022/06/28 05:00:12;;;;;;;14.88;8.75;;;13.20;99.90;;;;;;5014367;28;20136;-66
2022/06/28 05:02:38;;;;;;;17.48;8.68;;;13.30;99.90;;;;;;5014814;28;20042;-66
2022/06/28 05:05:05;;;;;;;14.80;8.73;;;13.30;99.90;;;;;;5013060;28;20054;-66
2022/06/28 05:07:32;;;;;;;18.67;8.98;;;13.40;99.90;;;;;;5010757;28;20149;-66
2022/06/28 05:09:58;;;;;;;17.80;9.02;;;13.40;99.90;;;;;;4994743;28;20519;-66
2022/06/28 05:12:24;;;;;;;16.73;7.95;;;13.40;99.90;;;;;;5012452;28;20129;-66
2022/06/28 05:14:50;;;;;;;13.70;7.25;;;13.50;99.90;;;;;;5007786;28;20133;-66
2022/06/28 05:17:16;;;;;;;15.20;8.18;;;13.60;99.90;;;;;;5005116;28;20061;-66
2022/06/28 05:19:41;;;;;;;9.88;7.15;;;13.70;99.90;;;;;;5013830;28;20042;-66
2022/06/28 05:22:10;;;;;;;17.27;8.00;;;13.70;99.90;;;;;;5010078;28;20057;-66
2022/06/28 05:24:37;;;;;;;13.70;7.35;;;13.80;99.90;;;;;;5010878;28;20381;-65
2022/06/28 05:27:04;;;;;;;12.60;6.53;;;13.90;99.90;;;;;;5012344;28;20479;-66
2022/06/28 05:29:29;;;;;;;14.15;6.75;;;13.90;99.90;;;;;;5014265;28;20050;-66
2022/06/28 05:31:55;;;;;;;12.93;6.57;;;14.00;99.90;;;;;;5013445;28;20064;-66
2022/06/28 05:34:22;;;;;;;15.40;7.20;;;14.10;99.90;;;;;;5014988;28;20046;-65
2022/06/28 05:36:48;;;;;;;19.70;7.68;;;14.20;99.90;;;;;;4997311;28;20034;-66
2022/06/28 05:39:14;;;;;;;12.77;6.70;;;14.20;99.90;;;;;;5008250;28;20045;-66
2022/06/28 05:41:42;;;;;;;19.20;6.72;;;14.30;99.90;;;;;;5011976;28;20099;-66
2022/06/28 05:44:09;;;;;;;9.77;6.13;;;14.40;99.90;;;;;;5012692;28;20049;-66
2022/06/28 05:46:35;;;;;;;15.70;6.28;;;14.40;99.90;;;;;;5007436;28;20049;-66
2022/06/28 05:49:01;;;;;;;10.52;6.07;;;14.50;99.90;;;;;;5010684;28;20514;-66
2022/06/28 05:51:29;;;;;;;10.98;5.72;;;14.60;99.90;;;;;;5011131;28;20631;-66
2022/06/28 05:53:55;;;;;;;;;;;14.70;99.90;;;;;;5011185;28;20534;-66
2022/06/28 05:56:21;;;;;;;13.00;6.40;;;14.80;99.90;;;;;;5013258;28;19926;-66
2022/06/28 05:58:46;;;;;;;11.85;6.05;;;14.90;99.90;;;;;;5024970;28;20516;-66
2022/06/28 06:01:12;;;;;;;9.23;5.65;;;14.90;99.90;;;;;;5012079;28;20474;-66
2022/06/28 06:03:38;;;;;;;13.68;5.95;;;15.10;99.90;;;;;;5011999;28;20500;-67
2022/06/28 06:06:04;;;;;;;12.23;5.53;;;15.00;99.90;;;;;;5025362;28;20042;-66
2022/06/28 06:08:30;;;;;;;15.15;6.70;;;15.10;99.90;;;;;;5017898;28;20058;-67
2022/06/28 06:10:56;;;;;;;9.95;5.50;;;15.20;99.90;;;;;;5001138;28;20129;-66
2022/06/28 06:13:21;;;;;;;18.00;6.40;;;15.30;99.90;;;;;;5013595;28;20042;-66
2022/06/28 06:15:47;;;;;;;13.20;6.40;;;15.50;99.90;;;;;;5011392;28;20037;-66
2022/06/28 06:18:12;;;;;;;16.60;5.95;;;15.90;99.90;;;;;;5018817;28;20038;-66
2022/06/28 06:20:38;;;;;;;12.02;6.03;;;16.30;99.90;;;;;;5013872;28;20184;-66
2022/06/28 06:23:04;;;;;;;11.63;5.43;;;16.40;99.90;;;;;;4999329;28;20516;-67
2022/06/28 06:25:29;;;;;;;14.43;6.00;;;16.50;99.90;;;;;;5008985;28;20057;-66
2022/06/28 06:27:55;;;;;;;11.25;5.35;;;16.40;99.90;;;;;;5001443;28;20042;-66
2022/06/28 06:30:21;;;;;;;15.10;5.80;;;16.40;99.90;;;;;;5012070;28;20053;-67
2022/06/28 06:32:46;;;;;;;14.30;5.05;;;16.40;99.90;;;;;;5011611;28;20130;-66
2022/06/28 06:35:12;;;;;;;11.35;5.00;;;16.40;99.90;;;;;;5005964;28;20400;-67
2022/06/28 06:37:38;;;;;;;13.20;5.38;;;16.40;99.90;;;;;;5010534;28;20046;-66
2022/06/28 06:40:04;;;;;;;12.80;5.80;;;16.40;99.90;;;;;;5013517;28;20041;-67
2022/06/28 06:42:30;;;;;;;9.10;4.97;;;16.50;99.90;;;;;;5013169;28;20464;-67
2022/06/28 06:44:56;;;;;;;11.70;5.05;;;16.60;99.90;;;;;;5011201;28;20042;-67
2022/06/28 06:47:22;;;;;;;12.35;5.30;;;16.70;99.90;;;;;;5012347;28;20049;-66
2022/06/28 06:49:48;;;;;;;10.30;5.32;;;16.70;99.90;;;;;;5013058;28;20506;-67
2022/06/28 06:52:14;;;;;;;13.55;5.35;;;16.80;99.90;;;;;;5010670;28;20069;-67
2022/06/28 06:54:39;;;;;;;17.40;4.47;;;16.90;99.90;;;;;;5013110;28;20046;-67
2022/06/28 06:57:05;;;;;;;12.23;4.15;;;17.00;99.90;;;;;;5013116;28;20424;-67
2022/06/28 06:59:31;;;;;;;13.05;4.32;;;17.10;99.90;;;;;;5011593;28;20473;-67
2022/06/28 07:01:56;;;;;;;11.70;4.60;;;17.20;99.90;;;;;;5012228;28;20034;-68
2022/06/28 07:04:22;;;;;;;13.80;4.28;;;17.30;99.90;;;;;;5010438;28;20112;-67
2022/06/28 07:06:48;;;;;;;10.30;4.15;;;17.40;99.90;;;;;;5008635;28;20085;-67
2022/06/28 07:09:13;;;;;;;19.63;4.72;;;17.50;99.90;;;;;;5005272;28;20033;-67
2022/06/28 07:11:39;;;;;;;12.25;4.03;;;17.60;99.90;;;;;;5011655;28;20085;-67
2022/06/28 07:14:05;;;;;;;8.90;4.05;;;17.60;99.90;;;;;;5011232;28;20050;-66
2022/06/28 07:16:31;;;;;;;10.77;3.67;;;17.70;99.90;;;;;;5010646;28;20048;-66
2022/06/28 07:18:57;;;;;;;13.60;4.00;;;17.80;99.90;;;;;;5012141;28;20037;-66
2022/06/28 07:21:23;;;;;;;14.85;3.70;;;17.90;99.90;;;;;;5007647;28;20042;-66
2022/06/28 07:23:49;;;;;;;13.50;3.58;;;17.90;99.90;;;;;;4992696;28;20057;-66
2022/06/28 07:26:16;;;;;;;9.35;3.90;;;17.90;99.90;;;;;;5008666;28;20088;-67
2022/06/28 07:28:42;;;;;;;15.45;4.03;;;17.90;99.90;;;;;;5012669;28;20050;-67
2022/06/28 07:31:07;;;;;;;10.00;3.35;;;18.00;99.90;;;;;;5009856;28;20049;-66
2022/06/28 07:33:33;;;;;;;13.20;3.60;;;18.10;99.90;;;;;;5011820;28;20072;-66
2022/06/28 07:35:59;;;;;;;14.40;3.50;;;18.10;99.90;;;;;;5025918;28;20155;-66
2022/06/28 07:38:29;;;;;;;7.43;2.92;;;18.30;99.90;;;;;;5011244;28;20049;-66
2022/06/28 07:40:58;;;;;;;10.77;2.92;;;18.40;99.90;;;;;;5011202;28;20041;-66
2022/06/28 07:43:25;;;;;;;14.30;3.38;;;18.60;99.90;;;;;;5012201;28;20048;-66
2022/06/28 07:45:52;;;;;;;11.05;2.67;;;18.70;99.90;;;;;;5010131;28;20045;-67
2022/06/28 07:48:19;;;;;;;11.60;2.60;;;18.80;99.90;;;;;;5005287;28;20038;-66
2022/06/28 07:53:31;;;;;;;10.45;2.85;;;19.20;99.90;;;;;;5007582;28;20038;-66
2022/06/28 07:55:56;;;;;;;10.65;2.45;;;19.30;99.90;;;;;;5011010;28;20053;-67
2022/06/28 07:58:22;;;;;;;11.68;2.40;;;19.40;99.90;;;;;;5010756;28;20476;-67
2022/06/28 08:00:47;;;;;;;5.85;1.88;;;19.50;99.90;;;;;;5011161;28;20069;-67
2022/06/28 08:03:13;;;;;;;8.98;2.58;;;19.40;99.90;;;;;;5010143;28;20422;-67
2022/06/28 08:05:39;;;;;;;13.98;2.22;;;19.40;99.90;;;;;;5008974;28;20511;-67
2022/06/28 08:08:05;;;;;;;11.07;2.20;;;19.60;99.90;;;;;;5010540;28;20378;-67
2022/06/28 08:10:30;;;;;;;6.53;2.15;;;19.70;99.90;;;;;;5010200;28;20108;-67
2022/06/28 08:12:56;;;;;;;9.38;2.60;;;19.80;99.90;;;;;;5010545;28;20089;-67
2022/06/28 08:15:22;;;;;;;9.35;2.25;;;19.90;99.90;;;;;;5010779;28;20077;-67
2022/06/28 08:17:47;;;;;;;7.53;2.70;;;19.90;99.90;;;;;;5012644;28;20069;-67
2022/06/28 08:20:13;;;;;;;12.32;2.00;;;19.80;99.90;;;;;;5011892;28;20038;-67
2022/06/28 08:22:39;;;;;;;9.48;2.83;;;19.60;99.90;;;;;;4995793;28;20050;-66
2022/06/28 08:25:05;;;;;;;7.85;1.80;;;19.60;99.90;;;;;;4997201;28;20618;-67
2022/06/28 08:27:31;;;;;;;5.68;1.77;;;19.70;99.90;;;;;;5004317;28;20068;-67
2022/06/28 08:29:57;;;;;;;9.32;2.10;;;19.70;99.90;;;;;;5014708;28;20050;-66
2022/06/28 08:32:23;;;;;;;9.05;2.05;;;20.00;99.90;;;;;;5030572;28;20050;-67
2022/06/28 08:34:49;;;;;;;7.72;1.95;;;20.00;99.90;;;;;;5008188;28;20042;-67
2022/06/28 08:37:16;;;;;;;7.88;2.00;;;20.20;99.90;;;;;;5001407;28;20112;-67
2022/06/28 08:39:41;;;;;;;8.85;1.92;;;20.20;99.90;;;;;;5010677;28;20088;-67
2022/06/28 08:42:10;;;;;;;6.20;2.00;;;20.40;99.90;;;;;;5012103;28;20065;-66
2022/06/28 08:44:36;;;;;;;7.55;1.60;;;20.40;99.90;;;;;;5009467;28;20038;-66
2022/06/28 08:47:03;;;;;;;10.20;2.25;;;20.30;99.90;;;;;;5010561;28;20462;-67
2022/06/28 08:49:53;;;;;;;5.18;1.75;;;20.30;99.90;;;;;;5026595;28;20555;-66
2022/06/28 08:52:22;;;;;;;6.30;1.85;;;20.40;99.90;;;;;;4992783;28;20463;-66
2022/06/28 08:54:49;;;;;;;7.30;2.00;;;20.50;99.90;;;;;;5004909;28;20131;-67
2022/06/28 08:57:20;;;;;;;4.38;1.70;;;20.70;99.90;;;;;;5011809;28;20049;-66
2022/06/28 08:59:47;;;;;;;7.00;1.70;;;20.90;99.90;;;;;;5009083;28;20046;-67
2022/06/28 09:02:14;;;;;;;4.28;1.50;;;21.10;99.90;;;;;;5011757;28;20050;-66
2022/06/28 09:04:49;;;;;;;6.67;2.00;;;21.20;99.90;;;;;;5007600;28;20054;-66
2022/06/28 09:07:15;;;;;;;9.63;2.03;;;21.30;99.90;;;;;;5009844;28;20061;-66
2022/06/28 09:09:40;;;;;;;5.55;1.60;;;21.40;99.90;;;;;;5010400;28;20115;-66
2022/06/28 09:12:07;;;;;;;4.03;1.60;;;21.50;99.90;;;;;;5010516;28;20049;-66
2022/06/28 09:14:34;;;;;;;7.43;1.90;;;21.50;99.90;;;;;;5010918;28;20301;-67
2022/06/28 09:17:26;;;;;;;5.28;1.55;;;21.60;99.90;;;;;;5010752;28;20486;-67
2022/06/28 09:19:54;;;;;;;6.45;1.80;;;21.70;99.90;;;;;;5021899;28;20045;-67
2022/06/28 09:22:32;;;;;;;5.25;1.50;;;21.60;99.90;;;;;;5007944;28;20052;-67
2022/06/28 09:25:00;;;;;;;13.40;3.70;;;21.70;99.90;;;;;;5011410;28;20052;-67
2022/06/28 09:27:31;;;;;;;7.80;2.03;;;21.80;99.90;;;;;;5010463;28;20053;-66
2022/06/28 09:29:58;;;;;;;8.90;1.83;;;21.80;99.90;;;;;;5010188;28;20045;-66
2022/06/28 09:32:29;;;;;;;13.05;1.85;;;21.60;99.90;;;;;;5010821;28;20548;-67
2022/06/28 09:34:56;;;;;;;7.35;2.15;;;21.40;99.90;;;;;;5009463;28;20050;-66
2022/06/28 09:37:52;;;;;;;9.20;1.90;;;21.20;99.90;;;;;;5006162;28;20176;-66
2022/06/28 09:40:26;;;;;;;11.25;2.03;;;20.90;99.90;;;;;;5009867;28;20061;-67
2022/06/28 09:43:14;;;;;;;7.65;1.70;;;20.70;99.90;;;;;;5010575;28;20046;-67
2022/06/28 09:45:43;;;;;;;6.10;2.07;;;20.50;99.90;;;;;;5008310;28;20053;-67
2022/06/28 09:48:15;;;;;;;6.65;1.80;;;20.40;99.90;;;;;;5010210;28;20072;-67
2022/06/28 09:50:40;;;;;;;10.05;2.10;;;20.20;99.90;;;;;;5011060;28;20046;-67
2022/06/28 09:53:07;;;;;;;5.63;1.80;;;20.10;99.90;;;;;;4997873;28;20057;-67
2022/06/28 09:55:33;;;;;;;9.02;1.98;;;20.00;99.90;;;;;;5006281;28;20049;-67
2022/06/28 09:58:02;;;;;;;9.90;2.45;;;19.90;99.90;;;;;;5008137;28;20085;-67
2022/06/28 10:00:29;;;;;;;7.53;2.20;;;19.80;99.90;;;;;;5008884;28;20385;-65
2022/06/28 10:02:56;;;;;;;8.70;2.38;;;20.00;99.90;;;;;;5009909;28;20412;-65
2022/06/28 10:05:23;;;;;;;10.60;2.85;;;20.20;99.90;;;;;;5010043;28;20065;-65
2022/06/28 10:07:49;;;;;;;7.18;2.00;;;20.30;99.90;;;;;;5008055;28;20050;-65
2022/06/28 10:10:16;;;;;;;7.13;1.88;;;20.50;99.90;;;;;;5008525;28;20459;-65
2022/06/28 10:15:37;;;;;;;9.15;2.10;;;21.20;99.90;;;;;;5000060;28;20499;-66
2022/06/28 10:18:21;;;;;;;5.95;1.90;;;21.40;99.90;;;;;;5006110;28;20038;-66
2022/06/28 10:20:47;;;;;;;7.70;1.90;;;21.50;99.90;;;;;;5003459;28;20044;-65
2022/06/28 10:23:28;;;;;;;8.10;2.20;;;21.40;99.90;;;;;;5000428;28;20382;-66
2022/06/28 10:26:03;;;;;;;7.40;2.00;;;21.50;99.90;;;;;;5009725;28;20069;-65
2022/06/28 10:28:43;;;;;;;10.13;2.20;;;21.70;99.90;;;;;;4990464;28;20531;-65
2022/06/28 10:31:23;;;;;;;9.50;2.22;;;22.00;99.90;;;;;;5004869;28;20580;-66
2022/06/28 10:33:58;;;;;;;7.75;2.35;;;22.30;99.90;;;;;;5008849;28;20038;-65
2022/06/28 10:36:26;;;;;;;6.57;2.47;;;22.50;99.90;;;;;;5009151;28;20053;-65
2022/06/28 10:39:06;;;;;;;8.02;2.20;;;23.00;99.90;;;;;;5023461;28;20049;-66
2022/06/28 10:41:50;;;;;;;6.90;1.92;;;23.10;99.90;;;;;;5009861;28;20055;-65
2022/06/28 10:44:22;;;;;;;11.88;2.15;;;23.40;99.90;;;;;;5006473;28;20056;-66
2022/06/28 10:47:09;;;;;;;8.07;1.70;;;23.60;99.90;;;;;;5009808;28;20407;-66
2022/06/28 10:49:48;;;;;;;6.93;1.85;;;23.90;98.90;;;;;;5007826;28;20111;-66
2022/06/28 10:52:23;;;;;;;13.85;2.70;;;24.00;99.50;;;;;;5007737;28;20093;-65
2022/06/28 10:54:52;;;;;;;12.15;2.17;;;24.10;99.50;;;;;;5007118;28;20560;-66
2022/06/28 10:57:24;;;;;;;10.00;2.22;;;24.20;99.70;;;;;;5008300;28;20117;-66
2022/06/28 10:59:51;;;;;;;6.07;1.88;;;24.50;99.80;;;;;;5006538;28;20041;-66
2022/06/28 11:02:18;;;;;;;10.20;2.65;;;24.70;99.70;;;;;;5009302;28;20443;-65
2022/06/28 11:04:45;;;;;;;12.27;2.53;;;25.00;99.20;;;;;;5007829;28;20081;-66
2022/06/28 11:07:24;;;;;;;13.32;2.42;;;25.20;98.50;;;;;;5006388;28;20571;-66
2022/06/28 11:09:57;;;;;;;9.80;2.03;;;25.40;96.70;;;;;;5008785;28;20124;-66
2022/06/28 11:12:29;;;;;;;9.40;3.00;;;25.60;97.10;;;;;;5010647;28;20049;-66
2022/06/28 11:15:32;;;;;;;9.48;2.00;;;25.50;94.50;;;;;;5009124;28;20077;-65
2022/06/28 11:17:59;;;;;;;8.43;2.10;;;25.60;94.50;;;;;;5012415;28;20042;-66
2022/06/28 11:20:25;;;;;;;8.32;1.63;;;25.60;95.00;;;;;;5012086;28;20046;-65
2022/06/28 11:22:52;;;;;;;7.10;2.22;;;25.40;93.10;;;;;;5002584;28;20050;-66
2022/06/28 11:25:25;;;;;;;7.72;1.95;;;25.20;91.90;;;;;;5012567;28;20124;-65
2022/06/28 11:27:56;;;;;;;7.75;2.10;;;25.20;93.00;;;;;;5011755;28;20528;-65
2022/06/28 11:30:27;;;;;;;10.20;2.10;;;25.10;92.50;;;;;;5007698;28;20128;-67
2022/06/28 11:32:58;;;;;;;14.18;2.83;;;25.10;92.90;;;;;;5006288;28;20046;-66
2022/06/28 11:35:27;;;;;;;5.32;2.10;;;25.10;91.90;;;;;;5012308;28;20057;-65
2022/06/28 11:37:58;;;;;;;7.28;1.95;;;24.90;92.60;;;;;;5005008;28;20508;-66
2022/06/28 11:40:27;;;;;;;6.93;2.08;;;24.60;92.00;;;;;;5012210;28;20048;-65
2022/06/28 11:43:05;;;;;;;11.40;2.33;;;24.40;92.60;;;;;;5011978;28;20038;-65
2022/06/28 11:45:33;;;;;;;11.45;2.03;;;24.10;90.80;;;;;;5010689;28;20034;-65
2022/06/28 11:48:08;;;;;;;9.70;2.10;;;23.90;92.60;;;;;;5010332;28;20041;-65
2022/06/28 11:50:42;;;;;;;5.63;1.77;;;24.10;92.40;;;;;;5007153;28;20563;-66
2022/06/28 11:53:08;;;;;;;6.43;1.90;;;24.40;93.20;;;;;;4998829;28;20064;-66
2022/06/28 11:55:39;;;;;;;6.32;1.90;;;24.60;92.50;;;;;;5010447;28;20046;-66
2022/06/28 11:58:14;;;;;;;9.05;1.85;;;24.80;91.20;;;;;;5003458;28;20038;-66
2022/06/28 12:01:00;;;;;;;6.60;2.00;;;24.80;90.20;;;;;;5011136;28;20074;-65
2022/06/28 12:03:26;;;;;;;10.35;2.30;;;24.90;92.20;;;;;;5008968;28;20484;-65
2022/06/28 12:05:57;;;;;;;6.47;1.95;;;25.00;91.60;;;;;;5003322;28;20049;-66
2022/06/28 12:08:49;;;;;;;6.75;2.20;;;25.30;92.10;;;;;;5007600;28;20030;-66
2022/06/28 12:11:40;;;;;;;6.18;1.65;;;25.50;90.60;;;;;;5017521;28;20042;-65
2022/06/28 12:14:13;;;;;;;6.70;2.20;;;25.60;88.80;;;;;;5009996;28;20034;-65
2022/06/28 12:16:47;;;;;;;9.77;2.17;;;25.80;91.20;;;;;;5006306;28;20038;-65
2022/06/28 12:19:14;;;;;;;8.35;1.90;;;25.80;84.50;;;;;;5022739;28;20042;-66
2022/06/28 12:22:07;;;;;;;7.50;2.08;;;26.00;89.20;;;;;;5021288;28;20042;-65
2022/06/28 12:24:52;;;;;;;7.60;2.00;;;25.80;84.10;;;;;;5010598;28;20042;-65
2022/06/28 12:27:19;;;;;;;7.93;2.00;;;25.50;85.10;;;;;;5009959;28;20125;-66
2022/06/28 12:29:45;;;;;;;8.52;1.73;;;25.10;87.10;;;;;;5008964;28;20467;-66
2022/06/28 12:32:11;;;;;;;6.03;1.75;;;24.70;87.80;;;;;;5010274;28;20124;-65
2022/06/28 12:34:40;;;;;;;7.05;2.08;;;24.80;88.40;;;;;;5008105;28;20069;-66
2022/06/28 12:37:09;;;;;;;7.53;2.08;;;24.90;86.00;;;;;;5024297;28;20125;-65
2022/06/28 12:39:36;;;;;;;9.73;1.85;;;25.10;86.00;;;;;;5007569;28;20050;-65
2022/06/28 12:42:03;;;;;;;8.43;1.87;;;25.30;86.40;;;;;;5010391;28;20045;-65
2022/06/28 12:44:29;;;;;;;5.80;1.58;;;25.60;86.90;;;;;;5009992;28;20046;-66
2022/06/28 12:46:55;;;;;;;7.15;1.75;;;25.90;86.50;;;;;;5011470;28;20050;-66
2022/06/28 12:49:21;;;;;;;5.55;1.40;;;26.20;86.10;;;;;;5010075;28;20393;-65
2022/06/28 12:51:48;;;;;;;9.57;1.90;;;25.90;81.70;;;;;;5010852;28;20050;-66
2022/06/28 12:54:14;;;;;;;4.40;1.67;;;25.60;81.50;;;;;;5010905;28;20042;-65